Time;durP1;ratioP1;P1;durP2;ratioP2;P2;SDS_P1;SDS_P2;PMS_P1;PMS_P2;Temp;Humidity;BMP_temperature;BMP_pressure;BME280_temperature;BME280_humidity;BME280_pressure;Samples;Min_cycle;Max_cycle;Signal;HPM_P1;HPM_P2
2023/08/29 00:02:24;;;;;;;2.17;0.98;;;15.20;99.90;;;;;;5015249;28;20203;-86
2023/08/29 00:04:50;;;;;;;2.10;1.05;;;15.30;99.90;;;;;;5015429;28;20167;-85
2023/08/29 00:07:15;;;;;;;2.70;1.27;;;15.30;99.90;;;;;;4997696;28;20241;-85
2023/08/29 00:09:41;;;;;;;7.88;1.23;;;15.30;99.90;;;;;;5015457;28;20525;-85
2023/08/29 00:12:07;;;;;;;3.03;0.98;;;15.20;99.90;;;;;;5015093;28;20182;-85
2023/08/29 00:14:34;;;;;;;2.13;1.10;;;15.20;99.90;;;;;;4997678;28;20982;-85
2023/08/29 00:16:59;;;;;;;6.95;1.30;;;15.20;99.90;;;;;;4997453;28;20648;-85
2023/08/29 00:19:25;;;;;;;2.38;1.20;;;15.20;99.90;;;;;;4997539;28;20262;-85
2023/08/29 00:21:51;;;;;;;1.98;1.10;;;15.20;99.90;;;;;;4997365;28;20207;-85
2023/08/29 00:24:17;;;;;;;2.28;1.30;;;15.10;99.90;;;;;;4997610;28;20190;-86
2023/08/29 00:26:42;;;;;;;2.00;1.02;;;15.10;99.90;;;;;;4997476;28;20182;-85
2023/08/29 00:29:08;;;;;;;2.20;1.20;;;15.10;99.90;;;;;;4997007;28;20626;-85
2023/08/29 00:31:34;;;;;;;4.28;1.17;;;15.20;99.90;;;;;;4997366;28;20677;-86
2023/08/29 00:33:59;;;;;;;4.55;1.00;;;15.10;99.90;;;;;;4997216;28;20272;-85
2023/08/29 00:36:25;;;;;;;2.75;0.95;;;15.20;99.90;;;;;;5014752;28;20630;-86
2023/08/29 00:38:51;;;;;;;2.40;1.08;;;15.10;99.90;;;;;;4997285;28;20261;-86
2023/08/29 00:41:16;;;;;;;2.53;1.13;;;15.10;99.90;;;;;;5014747;28;20203;-86
2023/08/29 00:43:42;;;;;;;2.53;1.35;;;15.10;99.90;;;;;;4996853;28;20684;-86
2023/08/29 00:46:08;;;;;;;4.43;1.23;;;15.10;99.90;;;;;;4996995;28;20186;-85
2023/08/29 00:48:34;;;;;;;3.03;1.27;;;15.10;99.90;;;;;;5014759;28;20167;-85
2023/08/29 00:51:00;;;;;;;2.75;1.25;;;15.10;99.90;;;;;;4996825;28;20192;-86
2023/08/29 00:53:27;;;;;;;1.85;0.90;;;15.10;99.90;;;;;;4996930;28;20183;-86
2023/08/29 00:55:53;;;;;;;1.83;1.25;;;15.20;99.90;;;;;;5399641;23;20253;-84
2023/08/29 00:58:19;;;;;;;3.35;1.35;;;15.20;99.90;;;;;;5015920;28;20174;-84
2023/08/29 01:00:46;;;;;;;4.32;1.10;;;15.20;99.90;;;;;;5034089;28;20181;-84
2023/08/29 01:03:11;;;;;;;5.38;1.38;;;15.20;99.90;;;;;;5016658;28;20484;-83
2023/08/29 01:05:37;;;;;;;3.95;1.50;;;15.20;99.90;;;;;;5034203;28;20173;-84
2023/08/29 01:08:04;;;;;;;1.98;1.30;;;15.20;99.90;;;;;;5033992;28;20178;-83
2023/08/29 01:10:38;;;;;;;4.43;1.20;;;15.10;99.90;;;;;;5016015;28;20605;-83
2023/08/29 01:13:28;;;;;;;2.95;1.30;;;15.10;99.90;;;;;;5033561;28;20201;-83
2023/08/29 01:16:00;;;;;;;2.60;1.30;;;15.00;99.90;;;;;;5016221;28;20257;-83
2023/08/29 01:18:31;;;;;;;3.05;1.50;;;15.10;99.90;;;;;;5016290;28;20186;-84
2023/08/29 01:21:14;;;;;;;2.05;1.33;;;15.00;99.90;;;;;;5016216;28;20254;-83
2023/08/29 01:23:55;;;;;;;2.65;1.27;;;15.00;99.90;;;;;;5014139;28;20614;-83
2023/08/29 01:26:22;;;;;;;3.00;1.65;;;14.90;99.90;;;;;;5013519;28;20156;-83
2023/08/29 01:28:49;;;;;;;4.60;1.45;;;14.70;99.90;;;;;;4996146;28;20638;-84
2023/08/29 01:31:16;;;;;;;2.10;1.20;;;14.70;99.90;;;;;;4996486;28;20179;-83
2023/08/29 01:33:42;;;;;;;3.85;1.38;;;14.70;99.90;;;;;;4996331;28;20206;-84
2023/08/29 01:36:08;;;;;;;2.67;1.45;;;14.80;99.90;;;;;;5013844;28;20182;-84
2023/08/29 01:38:34;;;;;;;5.72;1.88;;;14.80;99.90;;;;;;4996417;28;20179;-83
2023/08/29 01:41:00;;;;;;;7.72;1.65;;;14.80;99.90;;;;;;4996166;28;20592;-84
2023/08/29 01:43:26;;;;;;;2.13;1.40;;;14.70;99.90;;;;;;4996001;28;20187;-84
2023/08/29 01:45:51;;;;;;;3.65;1.38;;;14.70;99.90;;;;;;5012678;28;20187;-83
2023/08/29 01:48:17;;;;;;;4.90;1.60;;;14.80;99.90;;;;;;5012461;28;20179;-84
2023/08/29 01:50:43;;;;;;;2.97;1.40;;;14.80;99.90;;;;;;5013723;28;20612;-84
2023/08/29 01:53:09;;;;;;;4.78;1.60;;;14.80;99.90;;;;;;5049191;28;20493;-84
2023/08/29 01:55:37;;;;;;;2.28;1.55;;;14.80;99.90;;;;;;5035541;28;20174;-83
2023/08/29 01:58:07;;;;;;;3.35;1.20;;;14.80;99.90;;;;;;5035109;28;20194;-84
2023/08/29 02:00:34;;;;;;;3.50;1.30;;;14.70;99.90;;;;;;5035575;28;20176;-83
2023/08/29 02:03:00;;;;;;;2.85;1.50;;;14.70;99.90;;;;;;5035154;28;20546;-83
2023/08/29 02:05:25;;;;;;;3.40;1.73;;;14.70;99.90;;;;;;5053389;28;20166;-83
2023/08/29 02:07:51;;;;;;;3.20;1.88;;;14.70;99.90;;;;;;5039169;28;20269;-83
2023/08/29 02:10:17;;;;;;;3.58;1.60;;;14.70;99.90;;;;;;5056888;28;20162;-84
2023/08/29 02:12:43;;;;;;;4.88;1.75;;;14.70;99.90;;;;;;5057064;28;20228;-84
2023/08/29 02:15:09;;;;;;;6.05;1.60;;;14.70;99.90;;;;;;5057319;28;20170;-84
2023/08/29 02:17:36;;;;;;;4.03;1.50;;;14.70;99.90;;;;;;5056998;28;20628;-84
2023/08/29 02:20:04;;;;;;;5.07;1.70;;;14.60;99.90;;;;;;5039620;28;20628;-84
2023/08/29 02:22:31;;;;;;;5.55;1.48;;;14.60;99.90;;;;;;5038900;28;20648;-84
2023/08/29 02:24:56;;;;;;;2.75;1.38;;;14.60;99.90;;;;;;5057070;28;20265;-84
2023/08/29 02:27:22;;;;;;;2.75;1.50;;;14.60;99.90;;;;;;5039064;28;20580;-84
2023/08/29 02:29:48;;;;;;;4.57;1.73;;;14.60;99.90;;;;;;5056582;28;20177;-83
2023/08/29 02:32:14;;;;;;;3.50;1.75;;;14.60;99.90;;;;;;5056942;28;20180;-84
2023/08/29 02:34:40;;;;;;;5.03;1.83;;;14.60;99.90;;;;;;5039092;28;20276;-83
2023/08/29 02:37:06;;;;;;;5.88;1.80;;;14.60;99.90;;;;;;5038717;28;20691;-84
2023/08/29 02:39:32;;;;;;;4.50;1.73;;;14.70;99.90;;;;;;5038759;28;20243;-84
2023/08/29 02:41:58;;;;;;;4.03;1.42;;;14.60;99.90;;;;;;5056732;28;20202;-84
2023/08/29 02:44:23;;;;;;;4.18;1.73;;;14.60;99.90;;;;;;5038610;28;20193;-83
2023/08/29 02:46:49;;;;;;;3.08;1.38;;;14.60;99.90;;;;;;5038593;28;20189;-83
2023/08/29 02:49:15;;;;;;;4.15;1.77;;;14.60;99.90;;;;;;5038791;28;20184;-84
2023/08/29 02:51:40;;;;;;;2.65;1.52;;;14.60;99.90;;;;;;5038523;28;20497;-83
2023/08/29 02:54:06;;;;;;;2.28;1.67;;;14.50;99.90;;;;;;5056646;28;20232;-83
2023/08/29 02:56:32;;;;;;;3.63;1.63;;;14.50;99.90;;;;;;5038454;28;20540;-84
2023/08/29 02:58:57;;;;;;;2.08;1.42;;;14.50;99.90;;;;;;5038176;28;20178;-84
2023/08/29 03:01:23;;;;;;;4.57;1.65;;;14.50;99.90;;;;;;5038402;28;20252;-83
2023/08/29 03:03:49;;;;;;;2.58;1.70;;;14.50;99.90;;;;;;5038513;28;20181;-83
2023/08/29 03:06:15;;;;;;;3.00;1.60;;;14.50;99.90;;;;;;5038303;28;20181;-83
2023/08/29 03:08:41;;;;;;;4.13;1.35;;;14.50;99.90;;;;;;5038346;28;20186;-84
2023/08/29 03:11:07;;;;;;;4.43;1.70;;;14.50;99.90;;;;;;5038067;28;20178;-84
2023/08/29 03:13:32;;;;;;;3.40;1.85;;;14.50;99.90;;;;;;5038239;28;20554;-84
2023/08/29 03:16:01;;;;;;;3.20;1.80;;;14.50;99.90;;;;;;5038097;28;20178;-83
2023/08/29 03:18:27;;;;;;;4.22;1.75;;;14.50;99.90;;;;;;5037259;28;20174;-83
2023/08/29 03:20:54;;;;;;;2.90;1.70;;;14.40;99.90;;;;;;5055868;28;20265;-83
2023/08/29 03:23:20;;;;;;;2.97;1.83;;;14.30;99.90;;;;;;5037951;28;20189;-83
2023/08/29 03:25:46;;;;;;;4.68;1.67;;;14.30;99.90;;;;;;5037946;28;20561;-83
2023/08/29 03:28:11;;;;;;;4.00;1.75;;;14.30;99.90;;;;;;5055545;28;20292;-83
2023/08/29 03:30:37;;;;;;;2.72;1.70;;;14.30;99.90;;;;;;5037861;28;20609;-84
2023/08/29 03:33:03;;;;;;;4.78;2.35;;;14.30;99.90;;;;;;5055733;28;20272;-84
2023/08/29 03:35:29;;;;;;;2.45;1.45;;;14.30;99.90;;;;;;5055760;28;20182;-84
2023/08/29 03:37:54;;;;;;;4.07;1.70;;;14.30;99.90;;;;;;5037794;28;20178;-84
2023/08/29 03:40:20;;;;;;;2.45;1.60;;;14.20;99.90;;;;;;5037750;28;20316;-84
2023/08/29 03:42:46;;;;;;;3.72;1.90;;;14.20;99.90;;;;;;5037369;28;20644;-83
2023/08/29 03:45:12;;;;;;;2.95;2.00;;;14.20;99.90;;;;;;5055448;28;20174;-83
2023/08/29 03:47:39;;;;;;;5.13;2.00;;;14.20;99.90;;;;;;5037622;28;20608;-83
2023/08/29 03:50:08;;;;;;;3.78;2.20;;;14.20;99.90;;;;;;5037443;28;20280;-85
2023/08/29 03:52:33;;;;;;;4.70;1.85;;;14.10;99.90;;;;;;5055387;28;20181;-86
2023/08/29 03:54:59;;;;;;;6.43;2.40;;;14.10;99.90;;;;;;5037600;28;20177;-86
2023/08/29 03:57:28;;;;;;;2.20;1.98;;;14.10;99.90;;;;;;5055203;28;20676;-86
2023/08/29 03:59:55;;;;;;;4.43;2.22;;;14.10;99.90;;;;;;5054845;28;20519;-86
2023/08/29 04:02:21;;;;;;;4.68;2.20;;;14.10;99.90;;;;;;5037249;28;20216;-86
2023/08/29 04:04:51;;;;;;;4.63;2.30;;;14.20;99.90;;;;;;5037293;28;20188;-86
2023/08/29 04:07:17;;;;;;;5.45;2.30;;;14.20;99.90;;;;;;5055114;28;20549;-86
2023/08/29 04:09:43;;;;;;;5.93;2.00;;;14.10;99.90;;;;;;5036833;28;20173;-86
2023/08/29 04:12:10;;;;;;;3.30;2.20;;;14.10;99.90;;;;;;5037379;28;20172;-86
2023/08/29 04:14:36;;;;;;;2.53;2.20;;;14.10;99.90;;;;;;5054775;28;20546;-86
2023/08/29 04:17:03;;;;;;;3.50;2.10;;;14.10;99.90;;;;;;5036940;28;20577;-87
2023/08/29 04:19:29;;;;;;;3.85;2.10;;;14.10;99.90;;;;;;5054772;28;20257;-87
2023/08/29 04:21:55;;;;;;;3.28;1.95;;;14.00;99.90;;;;;;5036988;28;20557;-86
2023/08/29 04:24:21;;;;;;;4.07;2.00;;;14.10;99.90;;;;;;5054860;28;20200;-86
2023/08/29 04:26:47;;;;;;;3.10;2.17;;;14.00;99.90;;;;;;5036744;28;20181;-86
2023/08/29 04:29:12;;;;;;;4.07;2.10;;;14.00;99.90;;;;;;5054368;28;20257;-86
2023/08/29 04:31:38;;;;;;;6.10;2.40;;;14.00;99.90;;;;;;5036568;28;20482;-87
2023/08/29 04:34:04;;;;;;;2.67;2.10;;;14.00;99.90;;;;;;5036832;28;20209;-86
2023/08/29 04:36:29;;;;;;;4.40;1.90;;;14.00;99.90;;;;;;5036655;28;20482;-86
2023/08/29 04:38:55;;;;;;;3.25;2.10;;;14.00;99.90;;;;;;5054539;28;20184;-86
2023/08/29 04:41:21;;;;;;;4.40;2.20;;;14.00;99.90;;;;;;5036505;28;20320;-86
2023/08/29 04:43:46;;;;;;;4.00;2.30;;;14.00;99.90;;;;;;5036301;28;20182;-86
2023/08/29 04:46:12;;;;;;;5.13;1.88;;;14.00;99.90;;;;;;5036393;28;20178;-86
2023/08/29 04:48:38;;;;;;;5.95;2.30;;;14.00;99.90;;;;;;5036630;28;20185;-86
2023/08/29 04:51:06;;;;;;;4.20;2.00;;;14.10;99.90;;;;;;5036368;28;20521;-86
2023/08/29 04:53:33;;;;;;;3.00;2.15;;;14.10;99.90;;;;;;5034335;28;20186;-86
2023/08/29 04:56:03;;;;;;;2.80;2.00;;;14.00;99.90;;;;;;5016400;28;20660;-86
2023/08/29 04:58:29;;;;;;;3.53;2.08;;;14.00;99.90;;;;;;5016333;28;20269;-86
2023/08/29 05:00:56;;;;;;;2.78;2.13;;;14.00;99.90;;;;;;5034133;28;20262;-85
2023/08/29 05:03:22;;;;;;;2.20;2.00;;;14.00;99.90;;;;;;5034160;28;20182;-86
2023/08/29 05:05:48;;;;;;;4.00;2.20;;;14.00;99.90;;;;;;5034225;28;20170;-86
2023/08/29 05:08:14;;;;;;;6.28;2.10;;;13.90;99.90;;;;;;5016408;28;20190;-86
2023/08/29 05:10:43;;;;;;;5.53;2.40;;;13.90;99.90;;;;;;5033979;28;20489;-86
2023/08/29 05:13:09;;;;;;;2.92;2.10;;;13.80;99.90;;;;;;5015984;28;20173;-86
2023/08/29 05:15:35;;;;;;;3.10;2.30;;;13.90;99.90;;;;;;5016136;28;20178;-86
2023/08/29 05:18:01;;;;;;;3.08;2.05;;;13.80;99.90;;;;;;5016282;28;20236;-86
2023/08/29 05:20:27;;;;;;;4.88;2.35;;;13.90;99.90;;;;;;5016362;28;20613;-86
2023/08/29 05:22:52;;;;;;;4.30;2.20;;;13.90;99.90;;;;;;5049270;28;20542;-86
2023/08/29 05:25:18;;;;;;;6.63;2.17;;;13.90;99.90;;;;;;5035828;28;20178;-83
2023/08/29 05:27:44;;;;;;;3.15;2.15;;;13.90;99.90;;;;;;5035896;28;20524;-83
2023/08/29 05:30:10;;;;;;;3.05;1.90;;;13.90;99.90;;;;;;5053206;28;20302;-84
2023/08/29 05:32:38;;;;;;;2.58;1.67;;;13.90;99.90;;;;;;5053679;28;20207;-83
2023/08/29 05:35:05;;;;;;;3.53;2.00;;;14.00;99.90;;;;;;5035821;28;20192;-83
2023/08/29 05:37:31;;;;;;;4.72;2.20;;;14.00;99.90;;;;;;5035686;28;20189;-84
2023/08/29 05:39:56;;;;;;;3.85;2.25;;;14.10;99.90;;;;;;5035707;28;20182;-84
2023/08/29 05:42:22;;;;;;;4.15;1.83;;;14.10;99.90;;;;;;5035052;28;20577;-84
2023/08/29 05:44:48;;;;;;;8.93;2.55;;;14.20;99.90;;;;;;5053173;28;20173;-83
2023/08/29 05:47:13;;;;;;;5.28;2.10;;;14.30;99.90;;;;;;5053474;28;20182;-83
2023/08/29 05:49:39;;;;;;;3.53;2.05;;;14.20;99.90;;;;;;5053422;28;20166;-84
2023/08/29 05:52:05;;;;;;;3.05;1.92;;;14.20;99.90;;;;;;5035529;28;20212;-83
2023/08/29 05:54:31;;;;;;;3.00;1.95;;;14.30;99.90;;;;;;5035471;28;20266;-83
2023/08/29 05:56:57;;;;;;;4.80;2.10;;;14.30;99.90;;;;;;5035294;28;20264;-83
2023/08/29 05:59:22;;;;;;;4.18;1.80;;;14.30;99.90;;;;;;5052977;28;20170;-83
2023/08/29 06:01:48;;;;;;;3.45;2.10;;;14.40;99.90;;;;;;5053176;28;20632;-83
2023/08/29 06:04:14;;;;;;;4.13;2.50;;;14.40;99.90;;;;;;5035499;28;20186;-84
2023/08/29 06:06:40;;;;;;;2.15;1.95;;;14.40;99.90;;;;;;5035351;28;20174;-84
2023/08/29 06:09:08;;;;;;;3.03;2.35;;;14.40;99.90;;;;;;5035313;28;20181;-84
2023/08/29 06:11:34;;;;;;;3.60;2.40;;;14.30;99.90;;;;;;5053248;28;20253;-83
2023/08/29 06:14:01;;;;;;;4.15;2.05;;;14.30;99.90;;;;;;5035187;28;20173;-84
2023/08/29 06:16:27;;;;;;;4.97;2.47;;;14.30;99.90;;;;;;5035293;28;20186;-83
2023/08/29 06:18:52;;;;;;;4.30;2.30;;;14.30;99.90;;;;;;5035400;28;20181;-83
2023/08/29 06:21:19;;;;;;;6.28;2.20;;;14.40;99.90;;;;;;5035071;28;20205;-84
2023/08/29 06:23:45;;;;;;;5.30;2.00;;;14.40;99.90;;;;;;5034161;28;20605;-85
2023/08/29 06:26:11;;;;;;;4.88;2.22;;;14.40;99.90;;;;;;5035293;28;20184;-86
2023/08/29 06:28:37;;;;;;;6.80;2.60;;;14.30;99.90;;;;;;5052831;28;20170;-86
2023/08/29 06:31:09;;;;;;;4.93;2.50;;;14.30;99.90;;;;;;5053137;28;20182;-86
2023/08/29 06:33:36;;;;;;;3.78;2.58;;;14.30;99.90;;;;;;5035216;28;20163;-86
2023/08/29 06:36:02;;;;;;;4.85;2.60;;;14.30;99.90;;;;;;5053056;28;20178;-86
2023/08/29 06:38:29;;;;;;;3.72;2.40;;;14.30;99.90;;;;;;5035319;28;20180;-86
2023/08/29 06:40:56;;;;;;;5.35;2.55;;;14.40;99.90;;;;;;5052778;28;20220;-86
2023/08/29 06:43:23;;;;;;;4.40;2.70;;;14.40;99.90;;;;;;5034768;28;20706;-87
2023/08/29 06:45:49;;;;;;;3.38;2.40;;;14.30;99.90;;;;;;5053105;28;20174;-86
2023/08/29 06:48:15;;;;;;;3.58;2.38;;;14.30;99.90;;;;;;5035095;28;20182;-87
2023/08/29 06:50:40;;;;;;;6.72;2.22;;;14.40;99.90;;;;;;5034835;28;20212;-87
2023/08/29 06:53:06;;;;;;;3.50;2.58;;;14.40;99.90;;;;;;5053633;28;20182;-86
2023/08/29 06:55:34;;;;;;;5.43;2.50;;;14.40;99.90;;;;;;5038566;28;20255;-85
2023/08/29 06:58:04;;;;;;;3.80;2.70;;;14.40;99.90;;;;;;5038795;28;20245;-86
2023/08/29 07:00:34;;;;;;;5.10;2.45;;;14.40;99.90;;;;;;5056413;28;20178;-85
2023/08/29 07:03:00;;;;;;;4.32;2.60;;;14.50;99.90;;;;;;5056237;28;20206;-86
2023/08/29 07:05:26;;;;;;;5.03;2.78;;;14.40;99.90;;;;;;5056331;28;20166;-86
2023/08/29 07:07:52;;;;;;;4.20;2.40;;;14.50;99.90;;;;;;5038572;28;20219;-85
2023/08/29 07:10:18;;;;;;;2.92;2.30;;;14.50;99.90;;;;;;5056148;28;20505;-86
2023/08/29 07:12:44;;;;;;;5.32;2.47;;;14.40;99.90;;;;;;5056238;28;20177;-86
2023/08/29 07:15:10;;;;;;;6.13;2.90;;;14.50;99.90;;;;;;5038030;28;20186;-86
2023/08/29 07:17:35;;;;;;;4.32;2.10;;;14.50;99.90;;;;;;5038179;28;20180;-86
2023/08/29 07:20:08;;;;;;;5.53;2.47;;;14.50;99.90;;;;;;5038221;28;20224;-87
2023/08/29 07:22:36;;;;;;;4.20;2.65;;;14.50;99.90;;;;;;5037881;28;20229;-87
2023/08/29 07:25:03;;;;;;;8.52;2.90;;;14.60;99.90;;;;;;5038132;28;20182;-87
2023/08/29 07:27:30;;;;;;;5.68;2.63;;;14.60;99.90;;;;;;5037911;28;20213;-86
2023/08/29 07:29:55;;;;;;;6.85;2.80;;;14.60;99.90;;;;;;5037739;28;20174;-87
2023/08/29 07:32:21;;;;;;;5.82;2.80;;;14.60;99.90;;;;;;5056101;28;20252;-86
2023/08/29 07:34:47;;;;;;;7.68;2.95;;;14.60;99.90;;;;;;5037928;28;20173;-85
2023/08/29 07:37:13;;;;;;;17.73;3.05;;;14.60;99.90;;;;;;5055714;28;20232;-85
2023/08/29 07:39:38;;;;;;;9.25;2.78;;;14.60;99.90;;;;;;5037941;28;20186;-86
2023/08/29 07:42:04;;;;;;;13.02;3.20;;;14.50;99.90;;;;;;5037638;28;20217;-86
2023/08/29 07:44:30;;;;;;;6.57;2.80;;;14.60;99.90;;;;;;5055386;28;20170;-86
2023/08/29 07:46:56;;;;;;;12.52;3.10;;;14.60;99.90;;;;;;5037508;28;20182;-86
2023/08/29 07:49:22;;;;;;;4.30;2.90;;;14.60;99.90;;;;;;5037631;28;20178;-86
2023/08/29 07:51:52;;;;;;;4.88;2.30;;;14.60;99.90;;;;;;5037498;28;20559;-86
2023/08/29 07:54:18;;;;;;;3.90;2.67;;;14.60;99.90;;;;;;5037530;28;20181;-86
2023/08/29 07:56:44;;;;;;;7.90;2.75;;;14.60;99.90;;;;;;5037066;28;20241;-86
2023/08/29 07:59:09;;;;;;;6.03;2.85;;;14.70;99.90;;;;;;5037115;28;20178;-85
2023/08/29 08:01:35;;;;;;;5.10;2.53;;;14.70;99.90;;;;;;5037187;28;20284;-86
2023/08/29 08:04:03;;;;;;;5.25;2.65;;;14.70;99.90;;;;;;5037086;28;20502;-86
2023/08/29 08:06:29;;;;;;;5.03;2.85;;;14.80;99.90;;;;;;5055033;28;20178;-87
2023/08/29 08:08:55;;;;;;;5.63;3.15;;;14.80;99.90;;;;;;5037257;28;20180;-86
2023/08/29 08:11:22;;;;;;;3.92;2.60;;;14.90;99.90;;;;;;5055104;28;20256;-87
2023/08/29 08:13:49;;;;;;;4.35;2.60;;;14.80;99.90;;;;;;5036824;28;20666;-85
2023/08/29 08:16:15;;;;;;;4.38;2.50;;;14.90;99.90;;;;;;5037058;28;20525;-86
2023/08/29 08:18:40;;;;;;;4.47;2.70;;;15.00;99.90;;;;;;5037020;28;20182;-86
2023/08/29 08:21:06;;;;;;;4.70;2.85;;;15.00;99.90;;;;;;5037229;28;20181;-86
2023/08/29 08:23:32;;;;;;;4.53;2.60;;;15.20;99.90;;;;;;5054908;28;20196;-87
2023/08/29 08:25:58;;;;;;;2.78;2.30;;;15.20;99.90;;;;;;5036824;28;20178;-85
2023/08/29 08:28:24;;;;;;;4.88;2.70;;;15.30;99.90;;;;;;5036882;28;20288;-85
2023/08/29 08:30:50;;;;;;;7.22;2.92;;;15.40;99.90;;;;;;5036500;28;20224;-86
2023/08/29 08:33:16;;;;;;;3.63;2.30;;;15.40;99.90;;;;;;5036777;28;20506;-86
2023/08/29 08:35:42;;;;;;;4.40;2.33;;;15.50;99.90;;;;;;5054768;28;20178;-86
2023/08/29 08:38:08;;;;;;;3.45;2.40;;;15.50;99.90;;;;;;5054537;28;20174;-86
2023/08/29 08:40:36;;;;;;;5.57;2.50;;;15.60;99.90;;;;;;5036685;28;20185;-86
2023/08/29 08:43:08;;;;;;;4.88;2.60;;;15.60;99.90;;;;;;5036505;28;20209;-86
2023/08/29 08:45:36;;;;;;;4.63;2.42;;;15.60;99.90;;;;;;5036319;28;20220;-86
2023/08/29 08:48:03;;;;;;;6.47;2.67;;;15.60;99.90;;;;;;5036512;28;20182;-86
2023/08/29 08:50:28;;;;;;;2.38;2.17;;;15.60;99.90;;;;;;5036462;28;20173;-87
2023/08/29 08:52:56;;;;;;;2.85;2.30;;;15.70;99.90;;;;;;5036383;28;20273;-86
2023/08/29 08:55:22;;;;;;;3.35;2.35;;;15.70;99.90;;;;;;5036441;28;20189;-86
2023/08/29 08:57:50;;;;;;;4.35;2.53;;;15.80;99.90;;;;;;5054013;28;20310;-86
2023/08/29 09:00:16;;;;;;;2.72;2.08;;;15.80;99.90;;;;;;5053899;28;20169;-86
2023/08/29 09:02:44;;;;;;;2.65;2.00;;;15.90;99.90;;;;;;5054285;28;20262;-86
2023/08/29 09:05:10;;;;;;;3.63;2.40;;;15.90;99.90;;;;;;5054094;28;20597;-86
2023/08/29 09:07:39;;;;;;;3.50;1.90;;;16.00;99.90;;;;;;5036152;28;20189;-86
2023/08/29 09:10:10;;;;;;;3.88;2.17;;;15.90;99.90;;;;;;5053896;28;20235;-86
2023/08/29 09:12:46;;;;;;;4.93;2.60;;;16.00;99.90;;;;;;5035997;28;20173;-85
2023/08/29 09:15:14;;;;;;;7.72;2.58;;;16.00;99.90;;;;;;5053445;28;20158;-86
2023/08/29 09:17:47;;;;;;;2.67;2.10;;;16.00;99.90;;;;;;5053396;28;20261;-86
2023/08/29 09:20:13;;;;;;;5.25;2.45;;;16.00;99.90;;;;;;5035929;28;20561;-86
2023/08/29 09:22:43;;;;;;;3.60;2.28;;;16.10;99.90;;;;;;5035775;28;20210;-87
2023/08/29 09:25:11;;;;;;;5.28;1.95;;;16.20;99.90;;;;;;5035798;28;20173;-85
2023/08/29 09:27:41;;;;;;;3.42;2.10;;;16.20;99.90;;;;;;5053621;28;20269;-86
2023/08/29 09:30:08;;;;;;;3.70;2.20;;;16.30;99.90;;;;;;5053437;28;20255;-86
2023/08/29 09:32:34;;;;;;;3.20;1.75;;;16.40;99.90;;;;;;5053704;28;20158;-86
2023/08/29 09:35:00;;;;;;;4.10;2.15;;;16.50;99.90;;;;;;5035725;28;20259;-86
2023/08/29 09:37:26;;;;;;;7.25;2.55;;;16.50;99.90;;;;;;5035332;28;20605;-86
2023/08/29 09:39:53;;;;;;;4.18;2.20;;;16.50;99.90;;;;;;5053486;28;20181;-86
2023/08/29 09:42:21;;;;;;;4.40;2.00;;;16.60;99.90;;;;;;5053379;28;20206;-85
2023/08/29 09:44:49;;;;;;;1.67;1.38;;;16.70;99.90;;;;;;5035657;28;20170;-86
2023/08/29 09:47:25;;;;;;;3.15;2.05;;;16.70;99.90;;;;;;5053504;28;20255;-86
2023/08/29 09:49:51;;;;;;;5.38;2.08;;;16.80;99.90;;;;;;5035480;28;20253;-86
2023/08/29 09:52:18;;;;;;;2.53;2.00;;;16.80;99.90;;;;;;5053311;28;20186;-82
2023/08/29 09:54:52;;;;;;;3.95;1.98;;;16.80;99.90;;;;;;5035567;28;20178;-83
2023/08/29 09:57:19;;;;;;;3.47;1.80;;;16.90;99.90;;;;;;5035286;28;20225;-83
2023/08/29 09:59:46;;;;;;;4.68;2.28;;;17.00;99.90;;;;;;5035233;28;20177;-84
2023/08/29 10:02:13;;;;;;;2.58;1.40;;;17.00;99.90;;;;;;5035228;28;20205;-84
2023/08/29 10:04:44;;;;;;;2.85;1.73;;;17.10;99.90;;;;;;5035498;28;20206;-84
2023/08/29 10:07:15;;;;;;;2.10;1.50;;;17.20;99.90;;;;;;5035388;28;20181;-83
2023/08/29 10:09:43;;;;;;;4.65;1.40;;;17.20;99.90;;;;;;5053404;28;20166;-85
2023/08/29 10:12:09;;;;;;;2.63;1.50;;;17.30;99.90;;;;;;5053232;28;20186;-84
2023/08/29 10:14:36;;;;;;;3.22;1.52;;;17.30;99.90;;;;;;5052949;28;20174;-84
2023/08/29 10:17:03;;;;;;;2.20;1.40;;;17.40;99.90;;;;;;5035072;28;20188;-83
2023/08/29 10:19:29;;;;;;;5.95;1.55;;;17.50;99.90;;;;;;5053123;28;20177;-83
2023/08/29 10:21:55;;;;;;;3.42;1.30;;;17.50;99.90;;;;;;5035012;28;20264;-84
2023/08/29 10:24:22;;;;;;;2.80;1.17;;;17.60;99.90;;;;;;5053248;28;20170;-83
2023/08/29 10:26:49;;;;;;;1.70;1.08;;;17.60;99.90;;;;;;5035334;28;20504;-83
2023/08/29 10:29:16;;;;;;;1.88;1.08;;;17.80;99.90;;;;;;5038712;28;20224;-83
2023/08/29 10:31:45;;;;;;;1.90;0.95;;;17.90;99.90;;;;;;5038991;28;20686;-83
2023/08/29 10:34:13;;;;;;;1.65;0.98;;;17.90;99.90;;;;;;5038961;28;20174;-83
2023/08/29 10:36:39;;;;;;;3.72;1.13;;;18.00;99.90;;;;;;5038936;28;20185;-83
2023/08/29 10:39:09;;;;;;;1.58;1.10;;;18.00;99.90;;;;;;5039067;28;20178;-84
2023/08/29 10:41:46;;;;;;;2.45;1.10;;;17.90;99.90;;;;;;5056709;28;20248;-84
2023/08/29 10:44:32;;;;;;;3.25;1.08;;;17.90;99.90;;;;;;5056574;28;20170;-84
2023/08/29 10:47:26;;;;;;;1.88;0.95;;;17.90;99.90;;;;;;5038788;28;20180;-84
2023/08/29 10:50:05;;;;;;;3.08;1.10;;;17.90;99.90;;;;;;5056684;28;20483;-84
2023/08/29 10:52:40;;;;;;;1.67;0.80;;;17.90;99.90;;;;;;5038805;28;20189;-83
2023/08/29 10:55:20;;;;;;;4.70;1.20;;;17.90;99.90;;;;;;5038736;28;20177;-83
2023/08/29 10:57:46;;;;;;;2.30;0.98;;;17.80;99.90;;;;;;5056399;28;20566;-84
2023/08/29 11:00:18;;;;;;;2.10;0.95;;;17.90;99.90;;;;;;5056133;28;20609;-84
2023/08/29 11:02:44;;;;;;;2.58;0.90;;;17.90;99.90;;;;;;5038318;28;20239;-84
2023/08/29 11:05:12;;;;;;;4.55;1.27;;;17.90;99.90;;;;;;5056456;28;20636;-84
2023/08/29 11:07:41;;;;;;;2.55;1.02;;;17.90;99.90;;;;;;5038260;28;20634;-83
2023/08/29 11:10:15;;;;;;;1.70;0.80;;;17.90;99.90;;;;;;5038290;28;20636;-83
2023/08/29 11:13:07;;;;;;;2.95;1.05;;;18.00;99.90;;;;;;5038335;28;20190;-83
2023/08/29 11:15:51;;;;;;;1.20;0.68;;;18.00;99.90;;;;;;5038222;28;20173;-84
2023/08/29 11:18:24;;;;;;;2.60;1.05;;;18.10;99.90;;;;;;5038295;28;20188;-84
2023/08/29 11:20:51;;;;;;;3.08;0.90;;;18.20;99.90;;;;;;5038167;28;20627;-84
2023/08/29 11:23:19;;;;;;;1.70;0.75;;;18.30;99.90;;;;;;5055917;28;20256;-84
2023/08/29 11:25:50;;;;;;;0.88;0.75;;;18.30;99.90;;;;;;5037926;28;20182;-84
2023/08/29 11:28:16;;;;;;;3.20;1.10;;;18.40;99.90;;;;;;5055998;28;20220;-83
2023/08/29 11:30:46;;;;;;;2.75;0.93;;;18.40;99.90;;;;;;5037912;28;20668;-83
2023/08/29 11:33:12;;;;;;;4.50;0.90;;;18.50;99.90;;;;;;5037919;28;20186;-83
2023/08/29 11:35:38;;;;;;;2.80;1.08;;;18.50;99.90;;;;;;5037996;28;20174;-84
2023/08/29 11:38:07;;;;;;;1.70;0.70;;;18.60;99.90;;;;;;5037832;28;20505;-83
2023/08/29 11:40:33;;;;;;;2.95;1.13;;;18.60;99.90;;;;;;5054857;28;20170;-83
2023/08/29 11:43:00;;;;;;;3.30;1.05;;;18.60;99.90;;;;;;5055482;28;20213;-84
2023/08/29 11:45:26;;;;;;;5.35;0.95;;;18.60;99.90;;;;;;5037478;28;20173;-84
2023/08/29 11:47:52;;;;;;;2.05;0.98;;;18.50;99.90;;;;;;5037727;28;20188;-83
2023/08/29 11:50:17;;;;;;;3.03;1.10;;;18.50;99.90;;;;;;5055463;28;20178;-84
2023/08/29 11:52:43;;;;;;;1.77;0.80;;;18.50;99.90;;;;;;5037422;28;20184;-84
2023/08/29 11:55:11;;;;;;;2.95;1.17;;;18.50;99.90;;;;;;5037783;28;20627;-84
2023/08/29 11:57:39;;;;;;;2.40;0.98;;;18.50;99.90;;;;;;5037328;28;20257;-84
2023/08/29 12:00:08;;;;;;;2.22;0.85;;;18.60;99.90;;;;;;5037220;28;20184;-83
2023/08/29 12:02:33;;;;;;;1.63;0.63;;;18.60;99.90;;;;;;5037280;28;20210;-84
2023/08/29 12:04:59;;;;;;;2.67;0.90;;;18.60;99.90;;;;;;5055214;28;20593;-83
2023/08/29 12:07:31;;;;;;;3.20;0.68;;;18.70;99.90;;;;;;5055241;28;20213;-84
2023/08/29 12:10:09;;;;;;;1.52;0.70;;;18.70;99.90;;;;;;5037232;28;20261;-84
2023/08/29 12:12:36;;;;;;;2.05;0.73;;;18.90;99.90;;;;;;5055145;28;20166;-83
2023/08/29 12:15:10;;;;;;;2.17;0.80;;;19.00;99.90;;;;;;5037310;28;20189;-83
2023/08/29 12:17:41;;;;;;;2.13;0.70;;;19.10;99.90;;;;;;5037010;28;20185;-83
2023/08/29 12:20:13;;;;;;;2.45;0.60;;;19.20;99.90;;;;;;5037141;28;20173;-85
2023/08/29 12:22:46;;;;;;;1.38;0.70;;;19.40;99.90;;;;;;5036820;28;20210;-84
2023/08/29 12:25:12;;;;;;;2.00;0.70;;;19.50;99.90;;;;;;5037106;28;20181;-84
2023/08/29 12:27:41;;;;;;;1.52;0.73;;;19.60;99.90;;;;;;5036954;28;20177;-84
2023/08/29 12:30:12;;;;;;;4.95;0.82;;;19.70;99.90;;;;;;5036592;28;20205;-84
2023/08/29 12:32:38;;;;;;;2.55;0.80;;;19.80;99.90;;;;;;5036849;28;20170;-84
2023/08/29 12:35:06;;;;;;;1.65;0.80;;;20.00;99.90;;;;;;5036733;28;20264;-83
2023/08/29 12:37:32;;;;;;;3.15;0.60;;;20.10;99.90;;;;;;5036705;28;20236;-84
2023/08/29 12:39:57;;;;;;;3.45;1.00;;;20.00;99.90;;;;;;5036691;28;20185;-83
2023/08/29 12:42:23;;;;;;;1.85;0.70;;;19.80;99.90;;;;;;5036620;28;20296;-84
2023/08/29 12:44:50;;;;;;;2.30;0.52;;;19.50;99.90;;;;;;5054303;28;20206;-84
2023/08/29 12:47:16;;;;;;;1.90;0.77;;;19.60;99.90;;;;;;5054375;28;20173;-84